createdAt,value
2023-05-14T00:00:16.805Z,101038.31
2023-05-14T00:03:10.894Z,100947.41
2023-05-14T00:05:39.778Z,100960.00
2023-05-14T00:08:06.818Z,100955.03
2023-05-14T00:10:34.212Z,100947.41
2023-05-14T00:13:01.628Z,101027.09
2023-05-14T00:15:28.978Z,100947.41
2023-05-14T00:17:56.077Z,101025.88
2023-05-14T00:20:23.664Z,100948.53
2023-05-14T00:22:52.210Z,100952.44
2023-05-14T00:25:19.305Z,100935.34
2023-05-14T00:27:46.586Z,100955.91
2023-05-14T00:30:14.104Z,100939.47
2023-05-14T00:32:41.475Z,100928.25
2023-05-14T00:35:09.410Z,101011.31
2023-05-14T00:37:37.392Z,101032.16
2023-05-14T00:40:08.627Z,100945.81
2023-05-14T00:42:40.965Z,100954.66
2023-05-14T00:45:09.068Z,100942.06
2023-05-14T00:47:36.553Z,101003.03
2023-05-14T00:50:04.900Z,100928.53
2023-05-14T00:52:33.337Z,101005.41
2023-05-14T00:55:04.081Z,100927.94
2023-05-14T00:57:32.487Z,100915.72
2023-05-14T00:59:59.991Z,100935.34
2023-05-14T01:02:27.133Z,100904.28
2023-05-14T01:04:55.223Z,100998.69
2023-05-14T01:07:30.481Z,100933.81
2023-05-14T01:10:02.786Z,100993.25
2023-05-14T01:12:39.571Z,100930.53
2023-05-14T01:15:11.710Z,100919.84
2023-05-14T01:17:42.269Z,101003.50
2023-05-14T01:20:10.793Z,100975.38
2023-05-14T01:22:39.552Z,101005.31
2023-05-14T01:25:07.288Z,101010.50
2023-05-14T01:27:42.048Z,100936.19
2023-05-14T01:30:14.766Z,101007.44
2023-05-14T01:32:44.712Z,100919.78
2023-05-14T01:35:12.935Z,100937.56
2023-05-14T01:37:43.748Z,100937.63
2023-05-14T01:40:11.952Z,100912.31
2023-05-14T01:42:39.153Z,100907.09
2023-05-14T01:45:07.721Z,100923.19
2023-05-14T01:47:34.714Z,100886.25
2023-05-14T01:50:02.075Z,100919.63
2023-05-14T01:52:29.320Z,100990.41
2023-05-14T01:54:58.572Z,100920.69
2023-05-14T01:57:25.586Z,100987.06
2023-05-14T01:59:52.944Z,100911.44
2023-05-14T02:02:20.137Z,100906.97
2023-05-14T02:04:47.411Z,100987.31
2023-05-14T02:07:14.795Z,100950.38
2023-05-14T02:09:42.184Z,100992.25
2023-05-14T02:12:11.719Z,100937.56
2023-05-14T02:14:38.960Z,100948.38
2023-05-14T02:17:06.084Z,100905.50
2023-05-14T02:19:33.310Z,100980.84
2023-05-14T02:22:01.260Z,100987.31
2023-05-14T02:24:28.562Z,100886.41
2023-05-14T02:26:55.554Z,100944.97
2023-05-14T02:29:24.288Z,100884.53
2023-05-14T02:31:51.274Z,100904.97
2023-05-14T02:34:18.688Z,100911.75
2023-05-14T02:36:45.716Z,100925.59
2023-05-14T02:39:13.143Z,100884.44
2023-05-14T02:41:40.211Z,100967.22
2023-05-14T02:44:07.570Z,100966.13
2023-05-14T02:46:35.986Z,100884.91
2023-05-14T02:49:03.398Z,100964.59
2023-05-14T02:51:30.435Z,100978.09
2023-05-14T02:53:57.973Z,100973.44
2023-05-14T02:56:30.337Z,100964.66
2023-05-14T02:58:57.702Z,100892.13
2023-05-14T03:01:25.690Z,100891.53
2023-05-14T03:03:54.940Z,100900.34
2023-05-14T03:06:21.926Z,100885.94
2023-05-14T03:08:49.393Z,100961.13
2023-05-14T03:11:16.394Z,100871.91
2023-05-14T03:13:43.850Z,100925.16
2023-05-14T03:16:11.414Z,100879.47
2023-05-14T03:18:38.807Z,100868.69
2023-05-14T03:21:09.027Z,100884.50
2023-05-14T03:23:36.428Z,100877.78
2023-05-14T03:26:04.935Z,100873.97
2023-05-14T03:28:32.255Z,100873.13
2023-05-14T03:30:59.729Z,100952.84
2023-05-14T03:33:27.277Z,100860.50
2023-05-14T03:35:54.266Z,100869.91
2023-05-14T03:38:23.039Z,100953.44
2023-05-14T03:40:50.281Z,100949.91
2023-05-14T03:43:17.598Z,100918.28
2023-05-14T03:45:44.581Z,100859.00
2023-05-14T03:48:12.064Z,100864.94
2023-05-14T03:50:39.314Z,100848.97
2023-05-14T03:53:06.813Z,100939.59
2023-05-14T03:55:35.231Z,100932.13
2023-05-14T03:58:02.713Z,100948.81
2023-05-14T04:00:29.700Z,100852.00
2023-05-14T04:02:57.115Z,100913.50
2023-05-14T04:05:24.213Z,100781.75
2023-05-14T04:07:52.617Z,100853.72
2023-05-14T04:10:19.798Z,100903.47
2023-05-14T04:12:48.501Z,100865.03
2023-05-14T04:15:15.910Z,100850.47
2023-05-14T04:17:43.183Z,100935.06
2023-05-14T04:20:10.844Z,100862.28
2023-05-14T04:22:38.242Z,100866.31
2023-05-14T04:25:06.185Z,100939.28
2023-05-14T04:27:34.182Z,100936.78
2023-05-14T04:30:03.000Z,100934.78
2023-05-14T04:32:30.555Z,100939.44
2023-05-14T04:34:57.490Z,100775.47
2023-05-14T04:37:25.488Z,100939.00
2023-05-14T04:39:52.516Z,100857.06
2023-05-14T04:42:19.817Z,100936.94
2023-05-14T04:44:47.080Z,100925.03
2023-05-14T04:47:15.981Z,100866.16
2023-05-14T04:49:43.527Z,100900.09
2023-05-14T04:52:11.010Z,100827.38
2023-05-14T04:54:38.283Z,100872.44
2023-05-14T04:57:05.923Z,100854.41
2023-05-14T04:59:32.882Z,100846.66
2023-05-14T05:02:00.473Z,100859.69
2023-05-14T05:04:29.064Z,100843.63
2023-05-14T05:06:56.174Z,100927.34
2023-05-14T05:09:23.239Z,100841.38
2023-05-14T05:11:50.650Z,100833.78
2023-05-14T05:14:17.807Z,100831.47
2023-05-14T05:16:45.149Z,100842.16
2023-05-14T05:19:12.286Z,100832.47
2023-05-14T05:21:41.379Z,100913.84
2023-05-14T05:24:08.696Z,100836.75
2023-05-14T05:26:38.782Z,100834.06
2023-05-14T05:29:05.994Z,100917.53
2023-05-14T05:31:33.601Z,100917.06
2023-05-14T05:34:01.455Z,100915.78
2023-05-14T05:36:28.789Z,100839.94
2023-05-14T05:38:57.280Z,100886.75
2023-05-14T05:41:26.861Z,100922.84
2023-05-14T05:43:53.799Z,100931.19
2023-05-14T05:46:24.061Z,100935.53
2023-05-14T05:48:51.345Z,100933.25
2023-05-14T05:51:18.852Z,100922.25
2023-05-14T05:53:46.245Z,100868.28
2023-05-14T05:56:15.138Z,100846.69
2023-05-14T05:58:42.417Z,100924.25
2023-05-14T06:01:09.960Z,100849.81
2023-05-14T06:03:37.010Z,100842.09
2023-05-14T06:06:04.207Z,100869.44
2023-05-14T06:08:31.650Z,100804.50
2023-05-14T06:10:58.659Z,100923.78
2023-05-14T06:13:27.613Z,100916.84
2023-05-14T06:15:56.564Z,100860.72
2023-05-14T06:18:24.010Z,100928.22
2023-05-14T06:20:51.025Z,100922.00
2023-05-14T06:23:18.449Z,100836.66
2023-05-14T06:25:45.412Z,100923.78
2023-05-14T06:28:12.656Z,100847.88
2023-05-14T06:30:40.996Z,100932.56
2023-05-14T06:33:08.513Z,100831.34
2023-05-14T06:35:35.636Z,100928.59
2023-05-14T06:38:03.036Z,100921.94
2023-05-14T06:40:29.998Z,100919.72
2023-05-14T06:42:57.301Z,100921.25
2023-05-14T06:45:24.301Z,100861.63
2023-05-14T06:47:53.265Z,100914.53
2023-05-14T06:50:20.450Z,100801.28
2023-05-14T06:52:48.251Z,100864.78
2023-05-14T06:55:15.671Z,100834.25
2023-05-14T06:57:43.150Z,100868.50
2023-05-14T07:00:11.066Z,100898.66
2023-05-14T07:02:38.485Z,100817.97
2023-05-14T07:05:08.740Z,100901.41
2023-05-14T07:07:36.099Z,100843.94
2023-05-14T07:10:03.468Z,100817.59
2023-05-14T07:12:31.178Z,100796.09
2023-05-14T07:14:58.170Z,100829.19
2023-05-14T07:17:25.576Z,100808.84
2023-05-14T07:19:52.598Z,100844.84
2023-05-14T07:22:21.435Z,100874.06
2023-05-14T07:24:49.447Z,100773.38
2023-05-14T07:27:19.447Z,100874.75
2023-05-14T07:29:46.457Z,100809.28
2023-05-14T07:32:15.604Z,100805.25
2023-05-14T07:34:42.896Z,100871.41
2023-05-14T07:37:10.324Z,100780.84
2023-05-14T07:39:39.093Z,100821.41
2023-05-14T07:42:07.764Z,100862.53
2023-05-14T07:44:35.140Z,100796.16
2023-05-14T07:47:02.461Z,100811.81
2023-05-14T07:49:29.618Z,100803.94
2023-05-14T07:51:58.699Z,100872.69
2023-05-14T07:54:26.010Z,100744.91
2023-05-14T07:56:54.573Z,100836.06
2023-05-14T07:59:21.644Z,100844.59
2023-05-14T08:01:49.025Z,100770.00
2023-05-14T08:04:16.431Z,100784.66
2023-05-14T08:06:43.801Z,100830.88
2023-05-14T08:09:10.795Z,100759.72
2023-05-14T08:11:39.210Z,100785.31
2023-05-14T08:14:07.933Z,100736.72
2023-05-14T08:16:35.377Z,100789.28
2023-05-14T08:19:02.388Z,100832.66
2023-05-14T08:21:29.727Z,100746.78
2023-05-14T08:23:56.667Z,100761.34
2023-05-14T08:26:24.101Z,100726.00
2023-05-14T08:28:51.186Z,100833.69
2023-05-14T08:31:19.904Z,100833.56
2023-05-14T08:33:47.003Z,100827.03
2023-05-14T08:36:14.346Z,100830.53
2023-05-14T08:38:42.307Z,100710.31
2023-05-14T08:41:11.653Z,100768.44
2023-05-14T08:43:45.983Z,100741.03
2023-05-14T08:46:15.536Z,100732.16
2023-05-14T08:48:48.352Z,100743.00
2023-05-14T08:51:15.848Z,100820.44
2023-05-14T08:53:43.565Z,100736.13
2023-05-14T08:56:10.996Z,100801.91
2023-05-14T08:58:37.997Z,100802.75
2023-05-14T09:01:05.813Z,100805.28
2023-05-14T09:03:33.934Z,100718.88
2023-05-14T09:06:04.256Z,100715.06
2023-05-14T09:08:31.694Z,100710.25
2023-05-14T09:10:59.007Z,100723.97
2023-05-14T09:13:28.206Z,100779.66
2023-05-14T09:15:57.423Z,100689.69
2023-05-14T09:18:25.501Z,100697.56
2023-05-14T09:20:53.347Z,100773.47
2023-05-14T09:23:21.851Z,100686.53
2023-05-14T09:25:49.208Z,100691.41
2023-05-14T09:28:18.814Z,100671.97
2023-05-14T09:30:50.433Z,100679.34
2023-05-14T09:33:27.982Z,100743.19
2023-05-14T09:35:59.988Z,100702.31
2023-05-14T09:38:32.100Z,100741.13
2023-05-14T09:41:00.200Z,100730.59
2023-05-14T09:43:27.214Z,100661.97
2023-05-14T09:45:54.510Z,100742.50
2023-05-14T09:48:22.481Z,100728.41
2023-05-14T09:50:49.892Z,100681.06
2023-05-14T09:53:17.846Z,100647.41
2023-05-14T09:55:46.938Z,100661.66
2023-05-14T09:58:14.689Z,100736.66
2023-05-14T10:00:45.586Z,100690.94
2023-05-14T10:03:15.602Z,100629.31
2023-05-14T10:05:46.363Z,100700.13
2023-05-14T10:08:17.461Z,100614.25
2023-05-14T10:10:47.307Z,100686.91
2023-05-14T10:13:18.364Z,100663.97
2023-05-14T10:15:49.644Z,100632.34
2023-05-14T10:18:19.452Z,100690.03
2023-05-14T10:20:53.412Z,100635.69
2023-05-14T10:23:20.555Z,100671.78
2023-05-14T10:25:52.658Z,100640.28
2023-05-14T10:28:19.750Z,100628.44
2023-05-14T10:30:47.083Z,100633.44
2023-05-14T10:33:16.739Z,100627.91
2023-05-14T10:36:04.747Z,100694.63
2023-05-14T10:38:33.671Z,100614.97
2023-05-14T10:41:03.987Z,100610.91
2023-05-14T10:43:36.169Z,100604.31
2023-05-14T10:46:04.294Z,100601.81
2023-05-14T10:48:32.793Z,100567.63
2023-05-14T10:51:01.255Z,100675.66
2023-05-14T10:53:34.335Z,100625.00
2023-05-14T10:56:08.231Z,100673.94
2023-05-14T10:58:39.178Z,100501.81
2023-05-14T11:01:07.416Z,100673.59
2023-05-14T11:03:42.108Z,100592.19
2023-05-14T11:06:11.333Z,100611.75
2023-05-14T11:08:38.639Z,100675.66
2023-05-14T11:11:08.760Z,100602.56
2023-05-14T11:13:35.960Z,100682.47
2023-05-14T11:16:21.985Z,100685.34
2023-05-14T11:18:54.931Z,100606.97
2023-05-14T11:21:22.428Z,100682.28
2023-05-14T11:23:49.593Z,100620.69
2023-05-14T11:26:21.418Z,100607.28
2023-05-14T11:28:49.157Z,100606.56
2023-05-14T11:31:16.551Z,100548.16
2023-05-14T11:33:44.443Z,100580.16
2023-05-14T11:36:12.658Z,100639.31
2023-05-14T11:38:51.398Z,100544.72
2023-05-14T11:41:22.835Z,100570.06
2023-05-14T11:43:50.469Z,100564.47
2023-05-14T11:46:18.740Z,100558.75
2023-05-14T11:48:46.116Z,100628.78
2023-05-14T11:51:23.822Z,100627.13
2023-05-14T11:53:56.681Z,100549.75
2023-05-14T11:56:37.424Z,100549.28
2023-05-14T11:59:24.129Z,100601.81
2023-05-14T12:01:54.857Z,100596.63
2023-05-14T12:04:22.915Z,100520.53
2023-05-14T12:06:50.901Z,100583.38
2023-05-14T12:09:18.275Z,100575.22
2023-05-14T12:11:48.106Z,100547.31
2023-05-14T12:14:16.428Z,100500.31
2023-05-14T12:16:45.089Z,100509.00
2023-05-14T12:19:14.706Z,100432.59
2023-05-14T12:21:44.208Z,100473.41
2023-05-14T12:24:13.208Z,100554.19
2023-05-14T12:26:45.490Z,100468.66
2023-05-14T12:29:15.370Z,100550.00
2023-05-14T12:31:47.354Z,100546.69
2023-05-14T12:34:15.042Z,100532.66
2023-05-14T12:36:42.375Z,100468.69
2023-05-14T12:39:10.568Z,100460.28
2023-05-14T12:41:38.322Z,100458.59
2023-05-14T12:44:05.812Z,100441.94
2023-05-14T12:46:34.540Z,100511.03
2023-05-14T12:49:01.648Z,100458.03
2023-05-14T12:51:29.139Z,100449.25
2023-05-14T12:54:01.216Z,100477.78
2023-05-14T12:56:28.773Z,100458.91
2023-05-14T12:58:56.450Z,100522.00
2023-05-14T13:01:24.349Z,100513.22
2023-05-14T13:03:53.152Z,100493.19
2023-05-14T13:06:20.692Z,100513.50
2023-05-14T13:08:47.865Z,100436.81
2023-05-14T13:11:15.206Z,100451.81
2023-05-14T13:13:42.389Z,100434.00
2023-05-14T13:16:09.705Z,100421.06
2023-05-14T13:18:36.819Z,100462.66
2023-05-14T13:21:06.470Z,100406.16
2023-05-14T13:23:33.891Z,100404.50
2023-05-14T13:26:01.255Z,100475.09
2023-05-14T13:28:28.346Z,100452.50
2023-05-14T13:31:07.373Z,100436.44
2023-05-14T13:33:36.164Z,100374.53
2023-05-14T13:36:05.581Z,100457.22
2023-05-14T13:38:35.536Z,100400.41
2023-05-14T13:41:03.024Z,100426.97
2023-05-14T13:43:33.605Z,100304.59
2023-05-14T13:46:02.455Z,100455.84
2023-05-14T13:48:31.542Z,100386.44
2023-05-14T13:51:02.050Z,100387.72
2023-05-14T13:53:30.612Z,100374.91
2023-05-14T13:55:58.601Z,100436.09
2023-05-14T13:58:25.866Z,100352.22
2023-05-14T14:00:53.835Z,100415.69
2023-05-14T14:03:23.421Z,100379.19
2023-05-14T14:05:52.600Z,100332.31
2023-05-14T14:08:24.073Z,100416.97
2023-05-14T14:10:55.508Z,100361.50
2023-05-14T14:13:23.214Z,100319.16
2023-05-14T14:15:52.460Z,100426.66
2023-05-14T14:18:19.571Z,100401.91
2023-05-14T14:20:46.915Z,100333.81
2023-05-14T14:23:14.183Z,100386.22
2023-05-14T14:25:41.493Z,100346.00
2023-05-14T14:28:09.986Z,100365.75
2023-05-14T14:30:37.440Z,100351.63
2023-05-14T14:33:04.712Z,100337.94
2023-05-14T14:35:33.407Z,100334.88
2023-05-14T14:38:00.508Z,100424.38
2023-05-14T14:40:28.008Z,100345.22
2023-05-14T14:42:55.338Z,100413.94
2023-05-14T14:45:24.522Z,100414.97
2023-05-14T14:47:52.435Z,100344.47
2023-05-14T14:50:19.954Z,100399.41
2023-05-14T14:52:48.004Z,100339.66
2023-05-14T14:55:15.458Z,100401.47
2023-05-14T14:57:42.510Z,100329.78
2023-05-14T15:00:14.519Z,100300.47
2023-05-14T15:02:43.994Z,100390.47
2023-05-14T15:05:11.386Z,100364.31
2023-05-14T15:07:38.562Z,100380.13
2023-05-14T15:10:09.218Z,100306.88
2023-05-14T15:12:36.603Z,100310.53
2023-05-14T15:15:04.230Z,100320.28
2023-05-14T15:17:31.457Z,100334.00
2023-05-14T15:20:01.814Z,100371.38
2023-05-14T15:22:28.913Z,100326.69
2023-05-14T15:24:57.853Z,100389.28
2023-05-14T15:27:24.844Z,100329.19
2023-05-14T15:29:53.196Z,100328.59
2023-05-14T15:32:29.553Z,100389.16
2023-05-14T15:35:01.470Z,100371.03
2023-05-14T15:37:28.508Z,100336.25
2023-05-14T15:39:58.121Z,100316.66
2023-05-14T15:42:26.379Z,100302.38
2023-05-14T15:44:53.825Z,100317.94
2023-05-14T15:47:20.951Z,100378.75
2023-05-14T15:49:48.316Z,100294.31
2023-05-14T15:52:16.776Z,100367.91
2023-05-14T15:54:46.026Z,100302.13
2023-05-14T15:57:13.275Z,100265.56
2023-05-14T15:59:41.112Z,100301.09
2023-05-14T16:02:09.049Z,100358.34
2023-05-14T16:04:36.890Z,100295.53
2023-05-14T16:07:08.077Z,100305.69
2023-05-14T16:09:38.517Z,100282.25
2023-05-14T16:12:06.048Z,100348.00
2023-05-14T16:14:34.161Z,100280.59
2023-05-14T16:17:04.229Z,100323.16
2023-05-14T16:19:31.572Z,100363.25
2023-05-14T16:21:58.541Z,100258.28
2023-05-14T16:24:25.836Z,100282.59
2023-05-14T16:26:54.211Z,100365.88
2023-05-14T16:29:21.626Z,100359.25
2023-05-14T16:31:48.670Z,100287.91
2023-05-14T16:34:16.420Z,100357.59
2023-05-14T16:36:43.603Z,100290.16
2023-05-14T16:39:11.542Z,100286.56
2023-05-14T16:41:38.759Z,100260.31
2023-05-14T16:44:07.792Z,100297.34
2023-05-14T16:46:38.090Z,100348.06
2023-05-14T16:49:07.241Z,100340.84
2023-05-14T16:51:34.077Z,100336.31
2023-05-14T16:54:03.880Z,100277.00
2023-05-14T16:56:32.421Z,100260.97
2023-05-14T16:58:59.965Z,100303.22
2023-05-14T17:01:33.282Z,100336.44
2023-05-14T17:04:02.360Z,100344.06
2023-05-14T17:06:29.487Z,100341.19
2023-05-14T17:08:59.357Z,100264.19
2023-05-14T17:11:26.329Z,100265.41
2023-05-14T17:13:59.043Z,100329.69
2023-05-14T17:16:26.152Z,100258.28
2023-05-14T17:18:57.483Z,100253.94
2023-05-14T17:21:24.940Z,100281.78
2023-05-14T17:23:52.270Z,100333.19
2023-05-14T17:26:19.726Z,100266.56
2023-05-14T17:28:46.752Z,100243.47
2023-05-14T17:31:19.125Z,100339.75
2023-05-14T17:33:47.973Z,100257.97
2023-05-14T17:36:16.721Z,100241.72
2023-05-14T17:38:43.703Z,100321.88
2023-05-14T17:41:12.397Z,100246.47
2023-05-14T17:43:39.562Z,100228.78
2023-05-14T17:46:07.322Z,100314.31
2023-05-14T17:48:34.371Z,100238.19
2023-05-14T17:51:01.936Z,100227.00
2023-05-14T17:53:30.322Z,100300.59
2023-05-14T17:55:57.748Z,100294.13
2023-05-14T17:58:24.727Z,100286.81
2023-05-14T18:00:52.212Z,100294.06
2023-05-14T18:03:20.370Z,100297.34
2023-05-14T18:05:51.209Z,100221.06
2023-05-14T18:08:18.289Z,100288.63
2023-05-14T18:10:47.089Z,100286.38
2023-05-14T18:13:14.108Z,100203.50
2023-05-14T18:15:41.586Z,100214.59
2023-05-14T18:18:08.603Z,100205.47
2023-05-14T18:20:36.325Z,100213.06
2023-05-14T18:23:03.545Z,100281.72
2023-05-14T18:25:30.944Z,100269.53
2023-05-14T18:27:59.465Z,100275.94
2023-05-14T18:30:26.530Z,100298.34
2023-05-14T18:32:53.718Z,100288.63
2023-05-14T18:35:21.272Z,100224.63
2023-05-14T18:37:48.423Z,100299.94
2023-05-14T18:40:18.277Z,100238.53
2023-05-14T18:42:47.076Z,100303.84
2023-05-14T18:45:16.052Z,100208.44
2023-05-14T18:47:43.208Z,100233.53
2023-05-14T18:50:11.226Z,100226.41
2023-05-14T18:52:38.730Z,100224.28
2023-05-14T18:55:06.627Z,100270.94
2023-05-14T18:57:34.044Z,100218.56
2023-05-14T19:00:02.089Z,100225.44
2023-05-14T19:02:31.392Z,100284.81
2023-05-14T19:05:01.187Z,100278.22
2023-05-14T19:07:30.269Z,100234.56
2023-05-14T19:09:57.332Z,100309.22
2023-05-14T19:12:24.761Z,100243.63
2023-05-14T19:14:52.177Z,100316.19
2023-05-14T19:17:20.608Z,100299.16
2023-05-14T19:19:51.213Z,100302.41
2023-05-14T19:22:19.512Z,100291.25
2023-05-14T19:24:46.951Z,100216.94
2023-05-14T19:27:16.281Z,100188.56
2023-05-14T19:29:43.572Z,100224.34
2023-05-14T19:32:12.455Z,100208.72
2023-05-14T19:34:40.167Z,100291.09
2023-05-14T19:37:08.917Z,100254.22
2023-05-14T19:39:39.818Z,100208.06
2023-05-14T19:42:06.942Z,100223.44
2023-05-14T19:44:34.329Z,100226.84
2023-05-14T19:47:03.147Z,100229.41
2023-05-14T19:49:30.505Z,100210.56
2023-05-14T19:51:57.504Z,100247.75
2023-05-14T19:54:26.392Z,100209.81
2023-05-14T19:56:53.420Z,100194.38
2023-05-14T19:59:20.849Z,100261.41
2023-05-14T20:01:48.355Z,100192.06
2023-05-14T20:04:16.107Z,100191.13
2023-05-14T20:06:45.490Z,100273.91
2023-05-14T20:09:13.770Z,100204.13
2023-05-14T20:11:43.805Z,100152.06
2023-05-14T20:14:13.591Z,100211.53
2023-05-14T20:16:41.712Z,100215.59
2023-05-14T20:19:09.192Z,100197.22
2023-05-14T20:21:37.837Z,100200.06
2023-05-14T20:24:08.481Z,100187.06
2023-05-14T20:26:35.740Z,100192.03
2023-05-14T20:29:04.411Z,100190.44
2023-05-14T20:31:31.560Z,100174.09
2023-05-14T20:33:59.237Z,100185.47
2023-05-14T20:36:26.351Z,100246.81
2023-05-14T20:38:53.690Z,100187.25
2023-05-14T20:41:20.952Z,100210.47
2023-05-14T20:43:48.295Z,100241.47
2023-05-14T20:46:16.836Z,100242.44
2023-05-14T20:48:56.237Z,100167.91
2023-05-14T20:51:32.747Z,100246.53
2023-05-14T20:54:22.578Z,100091.06
2023-05-14T20:56:49.622Z,100159.09
2023-05-14T20:59:17.053Z,100244.69
2023-05-14T21:01:49.576Z,100208.06
2023-05-14T21:04:17.179Z,100164.09
2023-05-14T21:06:44.437Z,100236.44
2023-05-14T21:09:12.122Z,100156.63
2023-05-14T21:11:39.100Z,100222.47
2023-05-14T21:14:06.493Z,100117.53
2023-05-14T21:16:34.034Z,100151.94
2023-05-14T21:19:03.021Z,100189.47
2023-05-14T21:21:29.997Z,100232.00
2023-05-14T21:23:57.667Z,100220.63
2023-05-14T21:26:26.027Z,100222.94
2023-05-14T21:28:53.248Z,100153.84
2023-05-14T21:31:20.439Z,100223.59
2023-05-14T21:33:48.133Z,100156.44
2023-05-14T21:36:20.430Z,100128.59
2023-05-14T21:38:49.817Z,100207.31
2023-05-14T21:41:16.828Z,100216.53
2023-05-14T21:43:45.218Z,100215.91
2023-05-14T21:46:12.323Z,100133.78
2023-05-14T21:48:42.378Z,100120.22
2023-05-14T21:51:09.604Z,100154.81
2023-05-14T21:53:43.822Z,100145.16
2023-05-14T21:56:10.938Z,100141.66
2023-05-14T21:58:38.376Z,100217.38
2023-05-14T22:01:05.835Z,100222.13
2023-05-14T22:03:36.055Z,100222.94
2023-05-14T22:06:03.554Z,100136.03
2023-05-14T22:08:36.059Z,100160.72
2023-05-14T22:11:04.797Z,100151.00
2023-05-14T22:13:32.222Z,100211.94
2023-05-14T22:16:09.215Z,100140.19
2023-05-14T22:18:39.769Z,100153.97
2023-05-14T22:21:06.843Z,100125.75
2023-05-14T22:23:34.332Z,100203.69
2023-05-14T22:26:01.510Z,100100.06
2023-05-14T22:28:30.463Z,100091.75
2023-05-14T22:30:59.745Z,100128.78
2023-05-14T22:33:27.280Z,100186.22
2023-05-14T22:35:54.753Z,100141.75
2023-05-14T22:38:21.984Z,100151.38
2023-05-14T22:40:49.686Z,100172.63
2023-05-14T22:43:20.153Z,100098.38
2023-05-14T22:45:48.623Z,100162.09
2023-05-14T22:48:15.938Z,100155.53
2023-05-14T22:50:43.459Z,100133.53
2023-05-14T22:53:11.015Z,100164.31
2023-05-14T22:55:38.124Z,100157.09
2023-05-14T22:58:05.613Z,100123.19
2023-05-14T23:00:32.621Z,100155.06
2023-05-14T23:03:01.498Z,100147.00
2023-05-14T23:05:28.623Z,100155.06
2023-05-14T23:07:56.057Z,100136.09
2023-05-14T23:10:23.050Z,100136.09
2023-05-14T23:12:50.539Z,100140.44
2023-05-14T23:15:17.636Z,100129.88
2023-05-14T23:17:45.089Z,100124.25
2023-05-14T23:20:14.090Z,100138.41
2023-05-14T23:22:41.327Z,100132.66
2023-05-14T23:25:09.525Z,100074.38
2023-05-14T23:27:36.786Z,100128.38
2023-05-14T23:30:04.242Z,100108.97
2023-05-14T23:32:31.801Z,100104.19
2023-05-14T23:34:58.773Z,100114.13
2023-05-14T23:37:47.173Z,100110.94
2023-05-14T23:40:15.831Z,100115.81
2023-05-14T23:42:44.552Z,100098.81
2023-05-14T23:45:12.740Z,100099.72
2023-05-14T23:47:41.267Z,100100.94
2023-05-14T23:50:08.837Z,100089.75
2023-05-14T23:52:36.092Z,100040.50
2023-05-14T23:55:12.696Z,100098.69
2023-05-14T23:57:40.994Z,100102.59
